메인 페이지
METAR-TAF:

METAR-TAF

공항 :

티루치라팔리, 인도

위도: 10-46N, 경도: 078-43E, 고도: 85m

현재 날씨관측

예보는 38분 전, 21:00시(UTC)에 발표되었습니다.
12kt
온도 27°C
습도 84%
기압 1005 hPa
시정: 5000m
고도 1600ft 상공 구름 보통
고도 8000ft 상공 구름 많음
박무

METAR: VOTR 282100Z 28012KT 5000 BR SCT016 BKN080 27/24 Q1005 NOSIG

시각: 03:08 (21:38 UTC)

예보

예보는 4 시간 38분 전, 17:00시(UTC)에 발표되었습니다.
예보 대상 시간: 28일 18시부터 29일 24시까지 (UTC)
10kt
시정: 6000m
고도 1800ft 상공 구름 보통
고도 10000ft 상공 구름 보통
전환 중
29일 10시부터 29일 11시까지 (UTC)
10kt
일시적
29일 10시부터 29일 15시까지 (UTC)
시정: 4000m
고도 1500ft 상공 구름 보통
고도 8000ft 상공 구름 많음
전환 중
29일 15시부터 29일 16시까지 (UTC)
서남서10kt

TAF: VOTR 281700Z 2818/2924 26010KT 6000 SCT018 SCT100 BECMG 2910/2911 18010KT TEMPO 2910/2915 4000 -TSRA/RA SCT015 FEW025TCU/CB BKN080 BECMG 2915/2916 25010KT

4,000개 이상의 공항 관측 자료 및 예보 (METAR 및 TAF 보고).

지도상에서 검색 가능한 기상관측소가 노란 점과 빨간 점으로 표시되어 있습니다.

기상관측소 명을 보려면 표시 위로 마우스를 이동하세요.

날씨 관측과 예보를 보려면 클릭하세요.

지도 변경 : 확대하려면 엑스 표시가 있는 녹색 버튼, 축소하려면 빼기 표시가 있는 녹색 버튼, 다음 페이지의 지도를 보려면 녹색 화살표를 클릭하세요.


METAR-TAF: